Cele, Texas
Current Conditions -  °F | °C
As of 9:55 AM on Thursday 27 Nov 2014 (Local Time) from KEDC Reporting Station
Clear Clear  
Wind Chill: 10°   Ceiling: Unl
Heat Index: 10°   Visibility: 7mi
Dew Point:   Wind: 8mph
Humidity: 50%   Direction: 40°NE
Pressure: 30.55"   Gusts: NA
Location:  30.352°N, 97.5205°W
Report Text: KEDC 271555Z AUTO 04007KT 7SM CLR 10/00 A3055 RMK AO2
Loading
Personal Weather Stations






























Interactive Weather Map New forecast layout! Learn more

10-Day Weather Forecast

Advertisements
Track Severe Weather on mobile